Impacts METAR Board
IDs:

KMIA - Miami Intl, FL, US

Updated at: 1200 UTC 16 Sep 2019
Potential Impact None Slight Moderate High
Time 16/00Z 16/01Z 16/02Z 16/03Z 16/04Z 16/05Z 16/06Z 16/07Z 16/08Z 16/09Z 16/10Z 16/11Z 16/12Z
Temp87 87 83 83 83 83 82 82 82 81 81 80 81
Dewpt73 74 75 73 73 73 74 76 76 76 76 75 74
Altim29.90 29.93 29.94 29.94 29.95 29.95 29.94 29.93 29.92 29.92 29.93 29.95 29.97
VIS10 10 9 10 10 10 10 10 10 10 10 10 10
CIG-- -- 32 -- -- -- -- -- -- 14 -- -- --
CoverSCTSCTOVCSCTFEWFEWCLRSCTSCTBKNSCTSCTSCT
FltCatVFRVFRVFRVFRVFRVFRVFRVFRVFRMVFRVFRVFRVFR
WX-----RA--------------------
WDir2802803600290260280260280310280280300
WSpd6 5 5 5 6 3 3 4 3 5 5 5 6
WGst-- -- -- -- -- -- -- -- -- -- -- -- --
Raw hourly METARs
KMIA 152353Z 28006KT 10SM FEW032 FEW075 SCT130 SCT250 31/23 A2990 RMK AO2 SLP125 CB DSNT NW MOV SE T03060228 10344 20306 53009 $
KMIA 160053Z COR 28005KT 10SM FEW041 SCT070 SCT130 SCT250 31/23 A2993 RMK AO2 SLP134 T03060233 $
KMIA 160153Z 36005KT 9SM -RA SCT022 BKN032 OVC250 28/24 A2994 RMK AO2 RAB50 SLP140 P0000 T02830239 $
KMIA 160253Z VRB05KT 10SM FEW027 FEW055 SCT250 28/23 A2994 RMK AO2 RAE01 SLP139 OCNL LTG DSNT E CB DSNT E MOV E P0000 60000 T02830228 50014 $
KMIA 160353Z 29006KT 10SM FEW030 FEW180 28/23 A2995 RMK AO2 SLP141 T02830228 $
KMIA 160453Z 26003KT 10SM FEW025 FEW180 28/23 A2995 RMK AO2 SLP141 T02830228 403440261 $
KMIA 160553Z 28003KT 10SM CLR 28/23 A2994 RMK AO2 SLP138 60000 T02780233 10306 20278 58001 $
KMIA 160653Z 26004KT 10SM SCT250 28/24 A2993 RMK AO2 SLP135 T02780244 $
KMIA 160753Z 28003KT 10SM FEW015 FEW025 SCT250 28/24 A2992 RMK AO2 SLP131 T02780244 $
KMIA 160853Z 31005KT 10SM SCT007 BKN014 BKN050 27/24 A2992 RMK AO2 SLP131 T02720244 56007 $
KMIA 160953Z 28005KT 10SM FEW009 FEW025 SCT250 27/24 A2993 RMK AO2 SLP136 T02720244 $
KMIA 161053Z 28005KT 10SM FEW025 SCT250 27/24 A2995 RMK AO2 SLP141 T02670239 $
KMIA 161153Z 30006KT 10SM FEW025 FEW150 SCT250 27/23 A2997 RMK AO2 SLP148 CB DSNT E-SE T02720233 10278 20267 53018 $



Page loaded:  12:59 UTC  |   05:59 AM Pacific  |   06:59 AM Mountain  |   07:59 AM Central  |   08:59 AM Eastern

 

ADVISORIES

FORECASTS

FORECASTS

OBSERVATIONS

USER TOOLS

ABOUT US